METAR Data
IDs: Format: Raw Decoded Include TAF

Data at: 1523 UTC 21 Sep 2018

KGEU 210056Z 19011KT 10SM FEW120 36/14 A2977
KGEU 202349Z 19011G14KT 10SM FEW160 36/15 A2977
KGEU 202254Z 18006KT 10SM FEW080 36/15 A2977
KGEU 202149Z 17007KT 10SM FEW080 36/18 A2979
KGEU 202049Z 21006KT 10SM FEW080 34/18 A2981
KGEU 201950Z 18006KT 10SM FEW060 33/19 A2983
KGEU 201849Z 00000KT 10SM SKC 32/18 A2985
KGEU 201749Z 24003KT 10SM FEW250 30/21 A2987
KGEU 201651Z 00000KT 10SM FEW250 28/22 A2988
KGEU 201555Z 00000KT 10SM FEW250 27/23 A2987
KGEU 201448Z 00000KT 10SM FEW250 24/22 A2986
KGEU 201350Z 00000KT 10SM FEW070 SCT250 23/23 A2984
KGEU 201247Z 00000KT 10SM FEW070 SCT250 23/23 A2982 RMK FIRST